Mancos, CO

5:50 AM MDT on August 28, 2014 (GMT -0600)
East Canyon | Change Station
CLOSE
Current Station
Personal Weather Station
Location: Mancos, CO
Elevation: 7550 ft
Nearby Weather Stations

Elev 7550 ft 37.30 °N, 108.23 °W | Updated 8 minutes ago

Partly Cloudy
Partly Cloudy
48.2 °F
Feels Like 48 °F
N
3.0
Wind Variable Wind from NNE
Gusts 3.0 mph

Today
High -- | Low -- °F
--% Chance of Precip.
Yesterday
High -- | Low -- °F
Precip. -- in
6:40 AM 7:47 PM
Waxing Crescent, 8% visible
Pressure 30.13 in
Visibility 10.0 miles
Clouds Clear
Windchill 48 °F
Dew Point 40 °F
Humidity 73%
Rainfall 0.00 in
Snow Depth 1 in , 1 in
UV 0 out of 12
Pollen 8.80 out of 12
Air Quality Not available.
Flu Activity Not available.
METAR KCEZ 281053Z AUTO 00000KT 10SM CLR 07/06 A3029 RMK AO2 SLP203 T00670061 $

More Conditions Fewer Conditions

Pressure 30.13 in
Visibility 10.0 miles
Clouds Clear
Windchill 48 °F
Dew Point 40 °F
Humidity 73%
Rainfall 0.00 in
Snow Depth 1 in , 1 in
UV 0 out of 12
Pollen 8.80 out of 12
Air Quality Not available.
Flu Activity Not available.
METAR KCEZ 281053Z AUTO 00000KT 10SM CLR 07/06 A3029 RMK AO2 SLP203 T00670061 $

More Conditions Fewer Conditions

10-Day Weather Forecast

Almanac

Astronomy

Aug. 28, 2014 Rise Set
Actual Time 6:40 AM MDT 7:47 PM MDT
Civil Twilight 6:13 AM MDT 8:14 PM MDT
Nautical Twilight 5:41 AM MDT 8:46 PM MDT
Astronomical Twilight 5:08 AM MDT 9:19 PM MDT
Moon 9:31 AM MDT 9:18 PM MDT
Length of Visible Light 14h 01m
Length of Day
13h 07m
Tomorrow will be 2m 16s shorter.
Waxing Crescent, 8% of the Moon is Illuminated
Today
Waxing Crescent
Sep 2
First Quarter
Sep 8
Full
Sep 15
Last Quarter
Sep 24
New

Today's Extremes

State Highs State Lows

Community

WunderPhotos

Upload Photos

1,747,929 photos uploaded!

Nearby

Snow Depth

Station Depth Elevation
Sharkstooth 1 in 10720 ft
Columbus Basin 1 in 10785 ft
Scotch Creek 0 in 9100 ft
El Diente Peak 1 in 10200 ft
Cascade 0 in 8880 ft

Earthquake Activity

City Distance Mag. Time & Date
No recent earthquake activity has been reported nearby.
Minimum magnitude displayed is 2.5.

Coastal Water Temperatures

Place Temperature
No Stations Reporting

Nearby Weather Stations